Time,TemperatureF,DewpointF,PressureIn,WindDirection,WindDirectionDegrees,WindSpeedMPH,WindSpeedGustMPH,Humidity,HourlyPrecipIn,Conditions,Clouds,dailyrainin,SoftwareType,DateUTC
2013-03-12 00:00:00,37.0,31.7,29.59,SSW,202,14.0,14.0,81,0.00,,---,0.35,VWS V14.01,2013-03-12 04:00:00,
2013-03-12 00:02:00,37.0,31.7,29.59,WSW,248,9.8,9.8,81,0.00,,---,0.00,VWS V14.01,2013-03-12 04:02:00,
2013-03-12 00:03:00,36.8,31.5,29.59,WSW,248,6.9,9.8,81,0.00,,---,0.00,VWS V14.01,2013-03-12 04:03:00,
2013-03-12 00:08:00,36.8,31.5,29.59,SW,225,8.5,8.5,81,0.00,,---,0.00,VWS V14.01,2013-03-12 04:08:00,
2013-03-12 00:13:00,36.6,31.3,29.59,SW,225,6.7,6.7,81,0.00,,---,0.00,VWS V14.01,2013-03-12 04:13:00,
2013-03-12 00:18:00,36.6,31.3,29.60,SW,225,7.6,7.6,81,0.00,,---,0.00,VWS V14.01,2013-03-12 04:18:00,
2013-03-12 00:23:00,36.5,31.2,29.60,SSW,202,8.7,8.9,81,0.00,,---,0.00,VWS V14.01,2013-03-12 04:23:00,
2013-03-12 00:28:00,36.3,31.0,29.60,SW,225,8.2,8.2,81,0.00,,---,0.00,VWS V14.01,2013-03-12 04:28:00,
2013-03-12 00:33:00,36.3,31.0,29.60,WSW,248,4.2,8.0,81,0.00,,---,0.00,VWS V14.01,2013-03-12 04:33:00,
2013-03-12 00:38:00,36.3,31.0,29.61,WSW,248,10.9,10.9,81,0.00,,---,0.00,VWS V14.01,2013-03-12 04:38:00,
2013-03-12 00:43:00,36.3,31.0,29.61,SW,225,6.2,6.2,81,0.00,,---,0.00,VWS V14.01,2013-03-12 04:43:00,
2013-03-12 00:48:00,36.3,31.0,29.61,SW,225,12.3,12.3,81,0.00,,---,0.00,VWS V14.01,2013-03-12 04:48:00,
2013-03-12 00:51:00,36.1,30.8,29.61,WSW,248,7.1,7.1,81,0.00,,---,0.00,VWS V14.01,2013-03-12 04:51:00,
2013-03-12 00:57:00,36.1,30.8,29.61,SW,225,6.7,8.9,81,0.00,,---,0.00,VWS V14.01,2013-03-12 04:57:00,
2013-03-12 01:02:00,36.1,30.8,29.61,SSW,202,6.9,6.9,81,0.00,,---,0.00,VWS V14.01,2013-03-12 05:02:00,
2013-03-12 01:07:00,36.1,31.1,29.61,SW,225,8.2,8.2,82,0.00,,---,0.00,VWS V14.01,2013-03-12 05:07:00,
2013-03-12 01:12:00,35.9,31.0,29.61,SSW,202,14.9,14.9,82,0.00,,---,0.00,VWS V14.01,2013-03-12 05:12:00,
2013-03-12 01:17:00,35.9,31.0,29.62,WSW,248,3.1,3.1,82,0.00,,---,0.00,VWS V14.01,2013-03-12 05:17:00,
2013-03-12 01:22:00,35.9,31.0,29.62,WSW,248,9.3,9.3,82,0.00,,---,0.00,VWS V14.01,2013-03-12 05:22:00,
2013-03-12 01:27:00,35.7,30.8,29.62,SSW,202,5.5,10.0,82,0.00,,---,0.00,VWS V14.01,2013-03-12 05:27:00,
2013-03-12 01:32:00,35.7,30.8,29.61,SW,225,8.0,8.0,82,0.00,,---,0.00,VWS V14.01,2013-03-12 05:32:00,
2013-03-12 01:37:00,35.7,30.8,29.62,SW,225,9.6,9.6,82,0.00,,---,0.00,VWS V14.01,2013-03-12 05:37:00,
2013-03-12 01:42:00,35.7,31.0,29.62,SW,225,6.4,10.7,83,0.00,,---,0.00,VWS V14.01,2013-03-12 05:42:00,
2013-03-12 01:47:00,35.6,31.0,29.62,WSW,248,4.4,4.4,83,0.00,,---,0.00,VWS V14.01,2013-03-12 05:47:00,
2013-03-12 01:53:00,35.4,30.8,29.62,WSW,248,6.9,6.9,83,0.00,,---,0.00,VWS V14.01,2013-03-12 05:53:00,
2013-03-12 01:59:00,35.6,31.0,29.63,SW,225,7.6,9.8,83,0.00,,---,0.00,VWS V14.01,2013-03-12 05:59:00,
2013-03-12 02:04:00,35.6,31.0,29.63,SW,225,7.6,7.6,83,0.00,,---,0.00,VWS V14.01,2013-03-12 06:04:00,
2013-03-12 02:09:00,35.4,30.8,29.64,SW,225,6.4,6.4,83,0.00,,---,0.00,VWS V14.01,2013-03-12 06:09:00,
2013-03-12 02:14:00,35.6,31.0,29.64,WSW,248,5.5,8.2,83,0.00,,---,0.00,VWS V14.01,2013-03-12 06:14:00,
2013-03-12 02:19:00,35.6,31.0,29.64,SSW,202,9.3,9.3,83,0.00,,---,0.00,VWS V14.01,2013-03-12 06:19:00,
2013-03-12 02:24:00,35.6,31.0,29.64,WSW,248,7.3,7.3,83,0.00,,---,0.00,VWS V14.01,2013-03-12 06:24:00,
2013-03-12 02:29:00,35.6,30.7,29.64,SSW,202,9.3,12.3,82,0.00,,---,0.00,VWS V14.01,2013-03-12 06:29:00,
2013-03-12 02:34:00,35.6,30.7,29.64,WNW,292,7.8,7.8,82,0.00,,---,0.00,VWS V14.01,2013-03-12 06:34:00,
2013-03-12 02:39:00,35.7,30.8,29.64,SW,225,2.9,2.9,82,0.00,,---,0.00,VWS V14.01,2013-03-12 06:39:00,
2013-03-12 02:44:00,35.4,30.5,29.65,SSW,202,10.2,10.2,82,0.00,,---,0.00,VWS V14.01,2013-03-12 06:44:00,
2013-03-12 02:49:00,35.4,30.5,29.65,WSW,248,7.8,7.8,82,0.00,,---,0.00,VWS V14.01,2013-03-12 06:49:00,
2013-03-12 02:54:00,35.4,30.5,29.65,West,270,7.1,7.1,82,0.00,,---,0.00,VWS V14.01,2013-03-12 06:54:00,
2013-03-12 02:59:00,35.4,30.5,29.65,WSW,248,7.1,7.6,82,0.00,,---,0.00,VWS V14.01,2013-03-12 06:59:00,
2013-03-12 03:04:00,35.4,30.5,29.65,West,270,6.9,6.9,82,0.00,,---,0.00,VWS V14.01,2013-03-12 07:04:00,
2013-03-12 03:10:00,35.4,30.5,29.65,SW,225,12.3,12.3,82,0.00,,---,0.00,VWS V14.01,2013-03-12 07:10:00,
2013-03-12 03:15:00,35.4,30.5,29.66,SSW,202,7.8,7.8,82,0.00,,---,0.00,VWS V14.01,2013-03-12 07:15:00,
2013-03-12 03:20:00,35.4,30.2,29.66,SSW,202,6.7,12.0,81,0.00,,---,0.00,VWS V14.01,2013-03-12 07:20:00,
2013-03-12 03:25:00,35.4,30.2,29.66,SSW,202,8.5,8.5,81,0.00,,---,0.00,VWS V14.01,2013-03-12 07:25:00,
2013-03-12 03:30:00,35.4,30.2,29.66,WSW,248,8.2,8.2,81,0.00,,---,0.00,VWS V14.01,2013-03-12 07:30:00,
2013-03-12 03:35:00,35.4,30.5,29.66,SSW,202,7.1,7.1,82,0.00,,---,0.00,VWS V14.01,2013-03-12 07:35:00,
2013-03-12 03:40:00,35.4,30.5,29.66,WSW,248,13.1,13.1,82,0.00,,---,0.00,VWS V14.01,2013-03-12 07:40:00,
2013-03-12 03:45:00,35.4,30.5,29.66,SW,225,13.6,13.6,82,0.00,,---,0.00,VWS V14.01,2013-03-12 07:45:00,
2013-03-12 03:50:00,35.4,30.5,29.66,SW,225,6.4,10.7,82,0.00,,---,0.00,VWS V14.01,2013-03-12 07:50:00,
2013-03-12 03:55:00,35.4,30.5,29.66,SW,225,8.2,8.2,82,0.00,,---,0.00,VWS V14.01,2013-03-12 07:55:00,
2013-03-12 04:00:00,35.4,30.5,29.66,SW,225,6.0,6.0,82,0.00,,---,0.00,VWS V14.01,2013-03-12 08:00:00,
2013-03-12 04:05:00,35.2,30.6,29.66,SW,225,4.2,5.1,83,0.00,,---,0.00,VWS V14.01,2013-03-12 08:05:00,
2013-03-12 04:10:00,35.2,30.6,29.66,SW,225,1.5,1.5,83,0.00,,---,0.00,VWS V14.01,2013-03-12 08:10:00,
2013-03-12 04:15:00,34.8,30.2,29.66,SSW,202,6.2,6.2,83,0.00,,---,0.00,VWS V14.01,2013-03-12 08:15:00,
2013-03-12 04:20:00,34.8,30.2,29.66,WSW,248,4.0,4.0,83,0.00,,---,0.00,VWS V14.01,2013-03-12 08:20:00,
2013-03-12 04:25:00,34.7,30.4,29.66,SW,225,7.3,7.3,84,0.00,,---,0.00,VWS V14.01,2013-03-12 08:25:00,
2013-03-12 04:30:00,34.7,30.4,29.66,SW,225,4.6,4.6,84,0.00,,---,0.00,VWS V14.01,2013-03-12 08:30:00,
2013-03-12 04:35:00,34.7,30.4,29.66,WSW,248,7.6,7.6,84,0.00,,---,0.00,VWS V14.01,2013-03-12 08:35:00,
2013-03-12 04:40:00,34.7,30.4,29.65,SW,225,4.4,4.4,84,0.00,,---,0.00,VWS V14.01,2013-03-12 08:40:00,
2013-03-12 04:45:00,34.7,30.4,29.66,SW,225,6.9,6.9,84,0.00,,---,0.00,VWS V14.01,2013-03-12 08:45:00,
2013-03-12 04:50:00,34.7,30.4,29.65,WSW,248,8.7,8.7,84,0.00,,---,0.00,VWS V14.01,2013-03-12 08:50:00,
2013-03-12 04:55:00,34.7,30.7,29.66,SW,225,4.0,4.0,85,0.00,,---,0.00,VWS V14.01,2013-03-12 08:55:00,
2013-03-12 05:00:00,34.5,30.5,29.66,SW,225,1.7,1.7,85,0.00,,---,0.00,VWS V14.01,2013-03-12 09:00:00,
2013-03-12 05:06:00,34.5,30.5,29.66,SW,225,6.4,6.4,85,0.00,,---,0.00,VWS V14.01,2013-03-12 09:06:00,
2013-03-12 05:11:00,34.5,30.5,29.66,SW,225,1.3,1.3,85,0.00,,---,0.00,VWS V14.01,2013-03-12 09:11:00,
2013-03-12 05:16:00,34.5,30.5,29.66,WSW,248,8.0,8.0,85,0.00,,---,0.00,VWS V14.01,2013-03-12 09:16:00,
2013-03-12 05:21:00,34.3,30.3,29.66,SSE,158,1.5,1.5,85,0.00,,---,0.00,VWS V14.01,2013-03-12 09:21:00,
2013-03-12 05:26:00,34.3,30.3,29.66,SSW,202,5.1,5.1,85,0.00,,---,0.00,VWS V14.01,2013-03-12 09:26:00,
2013-03-12 05:31:00,34.3,30.3,29.66,WSW,248,6.7,7.6,85,0.00,,---,0.00,VWS V14.01,2013-03-12 09:31:00,
2013-03-12 05:36:00,34.3,30.3,29.66,SW,225,8.0,8.0,85,0.00,,---,0.00,VWS V14.01,2013-03-12 09:36:00,
2013-03-12 05:41:00,34.3,30.3,29.66,SW,225,10.9,10.9,85,0.00,,---,0.00,VWS V14.01,2013-03-12 09:41:00,
2013-03-12 05:46:00,34.3,30.3,29.66,SSW,202,7.1,8.0,85,0.00,,---,0.00,VWS V14.01,2013-03-12 09:46:00,
2013-03-12 05:51:00,34.3,30.3,29.67,WSW,248,8.9,8.9,85,0.00,,---,0.00,VWS V14.01,2013-03-12 09:51:00,
2013-03-12 05:56:00,34.3,30.3,29.67,SW,225,6.2,6.2,85,0.00,,---,0.00,VWS V14.01,2013-03-12 09:56:00,
2013-03-12 06:01:00,34.3,30.3,29.68,SSW,202,6.4,6.4,85,0.00,,---,0.00,VWS V14.01,2013-03-12 10:01:00,
2013-03-12 06:06:00,34.3,30.3,29.68,WSW,248,7.8,7.8,85,0.00,,---,0.00,VWS V14.01,2013-03-12 10:06:00,
2013-03-12 06:11:00,34.3,30.3,29.68,SW,225,6.0,6.0,85,0.00,,---,0.00,VWS V14.01,2013-03-12 10:11:00,
2013-03-12 06:16:00,34.3,30.3,29.69,West,270,2.6,4.9,85,0.00,,---,0.00,VWS V14.01,2013-03-12 10:16:00,
2013-03-12 06:22:00,34.3,30.3,29.69,WSW,248,7.8,7.8,85,0.00,,---,0.00,VWS V14.01,2013-03-12 10:22:00,
2013-03-12 06:28:00,34.3,30.3,29.69,SW,225,1.1,1.1,85,0.00,,---,0.00,VWS V14.01,2013-03-12 10:28:00,
2013-03-12 06:33:00,34.3,30.3,29.69,West,270,3.1,3.1,85,0.00,,---,0.00,VWS V14.01,2013-03-12 10:33:00,
2013-03-12 06:38:00,34.3,30.3,29.69,West,270,10.7,10.7,85,0.00,,---,0.00,VWS V14.01,2013-03-12 10:38:00,
2013-03-12 06:43:00,34.1,29.8,29.70,SW,225,6.7,6.7,84,0.00,,---,0.00,VWS V14.01,2013-03-12 10:43:00,
2013-03-12 06:48:00,33.9,29.6,29.71,SSW,202,1.5,3.3,84,0.00,,---,0.00,VWS V14.01,2013-03-12 10:48:00,
2013-03-12 06:53:00,33.9,29.6,29.71,West,270,8.0,8.0,84,0.00,,---,0.00,VWS V14.01,2013-03-12 10:53:00,
2013-03-12 06:58:00,33.8,29.2,29.71,West,270,8.2,8.2,83,0.00,,---,0.00,VWS V14.01,2013-03-12 10:58:00,
2013-03-12 07:03:00,33.6,28.7,29.71,West,270,7.6,7.6,82,0.00,,---,0.00,VWS V14.01,2013-03-12 11:03:00,
2013-03-12 07:08:00,33.6,28.7,29.72,WSW,248,7.8,7.8,82,0.00,,---,0.00,VWS V14.01,2013-03-12 11:08:00,
2013-03-12 07:13:00,33.4,28.5,29.72,SW,225,10.0,10.0,82,0.00,,---,0.00,VWS V14.01,2013-03-12 11:13:00,
2013-03-12 07:18:00,33.4,27.9,29.72,WSW,248,8.5,8.5,80,0.00,,---,0.00,VWS V14.01,2013-03-12 11:18:00,
2013-03-12 07:23:00,33.2,27.4,29.72,West,270,4.0,4.0,79,0.00,,---,0.00,VWS V14.01,2013-03-12 11:23:00,
2013-03-12 07:28:00,33.0,27.2,29.73,West,270,8.0,8.0,79,0.00,,---,0.00,VWS V14.01,2013-03-12 11:28:00,
2013-03-12 07:33:00,33.0,27.2,29.73,WSW,248,10.9,10.9,79,0.00,,---,0.00,VWS V14.01,2013-03-12 11:33:00,
2013-03-12 07:38:00,33.0,27.2,29.73,West,270,7.8,7.8,79,0.00,,---,0.00,VWS V14.01,2013-03-12 11:38:00,
2013-03-12 07:43:00,32.9,27.1,29.73,West,270,6.7,6.7,79,0.00,,---,0.00,VWS V14.01,2013-03-12 11:43:00,
2013-03-12 07:48:00,32.9,27.1,29.73,West,270,9.8,9.8,79,0.00,,---,0.00,VWS V14.01,2013-03-12 11:48:00,
2013-03-12 07:53:00,32.9,27.1,29.73,WSW,248,14.3,14.3,79,0.00,,---,0.00,VWS V14.01,2013-03-12 11:53:00,
2013-03-12 07:58:00,32.9,27.1,29.73,West,270,6.2,6.2,79,0.00,,---,0.00,VWS V14.01,2013-03-12 11:58:00,
2013-03-12 08:03:00,32.9,27.1,29.74,West,270,7.8,7.8,79,0.00,,---,0.00,VWS V14.01,2013-03-12 12:03:00,
2013-03-12 08:08:00,32.9,27.1,29.74,SW,225,7.1,7.1,79,0.00,,---,0.00,VWS V14.01,2013-03-12 12:08:00,
2013-03-12 08:13:00,32.9,27.1,29.73,WSW,248,2.6,2.6,79,0.00,,---,0.00,VWS V14.01,2013-03-12 12:13:00,
2013-03-12 08:18:00,32.9,27.1,29.74,WSW,248,1.5,6.2,79,0.00,,---,0.00,VWS V14.01,2013-03-12 12:18:00,
2013-03-12 08:23:00,32.9,27.1,29.74,West,270,8.0,8.0,79,0.00,,---,0.00,VWS V14.01,2013-03-12 12:23:00,
2013-03-12 08:28:00,32.9,27.1,29.74,SW,225,0.0,0.0,79,0.00,,---,0.00,VWS V14.01,2013-03-12 12:28:00,
2013-03-12 08:33:00,32.9,27.1,29.74,West,270,3.5,7.6,79,0.00,,---,0.00,VWS V14.01,2013-03-12 12:33:00,
2013-03-12 08:38:00,33.0,27.2,29.74,SW,225,8.7,8.7,79,0.00,,---,0.00,VWS V14.01,2013-03-12 12:38:00,
2013-03-12 08:43:00,32.9,27.1,29.74,WSW,248,7.6,7.6,79,0.00,,---,0.00,VWS V14.01,2013-03-12 12:43:00,
2013-03-12 08:48:00,32.9,27.1,29.74,SSW,202,8.7,8.7,79,0.00,,---,0.00,VWS V14.01,2013-03-12 12:48:00,
2013-03-12 08:53:00,32.9,27.1,29.75,WSW,248,8.5,8.5,79,0.00,,---,0.00,VWS V14.01,2013-03-12 12:53:00,
2013-03-12 08:58:00,32.9,27.1,29.75,WSW,248,0.0,0.0,79,0.00,,---,0.00,VWS V14.01,2013-03-12 12:58:00,
2013-03-12 09:03:00,33.0,27.2,29.75,WSW,248,8.2,8.2,79,0.00,,---,0.00,VWS V14.01,2013-03-12 13:03:00,
2013-03-12 09:08:00,33.0,27.2,29.75,SSW,202,3.8,3.8,79,0.00,,---,0.00,VWS V14.01,2013-03-12 13:08:00,
2013-03-12 09:13:00,33.0,27.2,29.75,SW,225,8.2,8.2,79,0.00,,---,0.00,VWS V14.01,2013-03-12 13:13:00,
2013-03-12 09:18:00,32.9,27.1,29.75,WSW,248,6.4,6.4,79,0.00,,---,0.00,VWS V14.01,2013-03-12 13:18:00,
2013-03-12 09:23:00,32.9,27.1,29.76,WSW,248,5.8,5.8,79,0.00,,---,0.00,VWS V14.01,2013-03-12 13:23:00,
2013-03-12 09:28:00,32.9,27.4,29.76,West,270,7.8,7.8,80,0.00,,---,0.00,VWS V14.01,2013-03-12 13:28:00,
2013-03-12 09:33:00,32.7,27.2,29.76,West,270,5.3,9.3,80,0.00,,---,0.00,VWS V14.01,2013-03-12 13:33:00,
2013-03-12 09:38:00,32.7,27.2,29.76,SSW,202,10.2,10.2,80,0.00,,---,0.00,VWS V14.01,2013-03-12 13:38:00,
2013-03-12 09:43:00,32.7,27.2,29.76,WSW,248,8.2,8.2,80,0.00,,---,0.00,VWS V14.01,2013-03-12 13:43:00,
2013-03-12 09:48:00,32.7,26.9,29.76,WSW,248,6.2,8.0,79,0.00,,---,0.00,VWS V14.01,2013-03-12 13:48:00,
2013-03-12 09:53:00,32.7,26.9,29.76,WSW,248,12.5,12.5,79,0.00,,---,0.00,VWS V14.01,2013-03-12 13:53:00,
2013-03-12 09:58:00,32.7,26.6,29.76,West,270,6.0,6.0,78,0.00,,---,0.00,VWS V14.01,2013-03-12 13:58:00,
2013-03-12 10:04:00,32.7,26.3,29.77,West,270,8.7,8.7,77,0.00,,---,0.00,VWS V14.01,2013-03-12 14:04:00,
2013-03-12 10:09:00,32.7,26.3,29.77,West,270,5.8,10.9,77,0.00,,---,0.00,VWS V14.01,2013-03-12 14:09:00,
2013-03-12 10:14:00,32.7,26.3,29.77,WNW,292,7.6,7.6,77,0.00,,---,0.00,VWS V14.01,2013-03-12 14:14:00,
2013-03-12 10:19:00,32.7,26.0,29.77,SSW,202,12.3,12.3,76,0.00,,---,0.00,VWS V14.01,2013-03-12 14:19:00,
2013-03-12 10:24:00,32.9,25.9,29.77,WSW,248,10.0,10.0,75,0.00,,---,0.00,VWS V14.01,2013-03-12 14:24:00,
2013-03-12 10:29:00,32.9,25.5,29.77,West,270,9.6,9.6,74,0.00,,---,0.00,VWS V14.01,2013-03-12 14:29:00,
2013-03-12 10:35:00,32.9,25.2,29.77,WSW,248,2.9,7.3,73,0.00,,---,0.00,VWS V14.01,2013-03-12 14:35:00,
2013-03-12 10:40:00,32.9,25.2,29.78,WSW,248,7.8,7.8,73,0.00,,---,0.00,VWS V14.01,2013-03-12 14:40:00,
2013-03-12 10:45:00,33.0,25.3,29.78,West,270,2.9,2.9,73,0.00,,---,0.00,VWS V14.01,2013-03-12 14:45:00,
2013-03-12 10:51:00,33.0,25.3,29.78,West,270,6.4,6.4,73,0.00,,---,0.00,VWS V14.01,2013-03-12 14:51:00,
2013-03-12 10:56:00,33.2,25.5,29.78,West,270,8.5,8.5,73,0.00,,---,0.00,VWS V14.01,2013-03-12 14:56:00,
2013-03-12 11:01:00,33.4,25.4,29.78,WSW,248,7.6,7.6,72,0.00,,---,0.00,VWS V14.01,2013-03-12 15:01:00,
2013-03-12 11:06:00,33.2,25.2,29.78,WSW,248,9.6,9.6,72,0.00,,---,0.00,VWS V14.01,2013-03-12 15:06:00,
2013-03-12 11:11:00,33.4,25.7,29.78,SW,225,8.2,8.2,73,0.00,,---,0.00,VWS V14.01,2013-03-12 15:11:00,
2013-03-12 11:17:00,33.4,25.4,29.78,WSW,248,6.9,6.9,72,0.00,,---,0.00,VWS V14.01,2013-03-12 15:17:00,
2013-03-12 11:22:00,33.4,25.0,29.78,SSW,202,6.7,6.7,71,0.00,,---,0.00,VWS V14.01,2013-03-12 15:22:00,
2013-03-12 11:27:00,33.6,25.2,29.78,SW,225,10.0,10.0,71,0.00,,---,0.00,VWS V14.01,2013-03-12 15:27:00,
2013-03-12 11:33:00,33.6,24.9,29.78,WNW,292,10.0,10.0,70,0.00,,---,0.00,VWS V14.01,2013-03-12 15:33:00,
2013-03-12 11:38:00,33.8,24.7,29.78,West,270,7.1,7.1,69,0.00,,---,0.00,VWS V14.01,2013-03-12 15:38:00,
2013-03-12 11:43:00,33.9,24.8,29.79,WSW,248,6.2,6.2,69,0.00,,---,0.00,VWS V14.01,2013-03-12 15:43:00,
2013-03-12 11:48:00,33.9,24.5,29.79,WSW,248,9.1,10.0,68,0.00,,---,0.00,VWS V14.01,2013-03-12 15:48:00,
2013-03-12 11:53:00,33.9,24.1,29.79,West,270,5.5,5.5,67,0.00,,---,0.00,VWS V14.01,2013-03-12 15:53:00,
2013-03-12 11:58:00,33.9,24.5,29.79,SSW,202,6.2,6.2,68,0.00,,---,0.00,VWS V14.01,2013-03-12 15:58:00,
2013-03-12 12:03:00,34.1,24.3,29.79,SSW,202,12.9,12.9,67,0.00,,---,0.00,VWS V14.01,2013-03-12 16:03:00,
2013-03-12 12:08:00,33.9,24.1,29.79,WSW,248,7.1,7.1,67,0.00,,---,0.00,VWS V14.01,2013-03-12 16:08:00,
2013-03-12 12:13:00,34.1,24.7,29.79,West,270,6.2,6.2,68,0.00,,---,0.00,VWS V14.01,2013-03-12 16:13:00,
2013-03-12 12:18:00,34.3,24.5,29.79,WSW,248,7.6,14.5,67,0.00,,---,0.00,VWS V14.01,2013-03-12 16:18:00,
2013-03-12 12:23:00,33.9,24.5,29.79,SW,225,7.8,7.8,68,0.00,,---,0.00,VWS V14.01,2013-03-12 16:23:00,
2013-03-12 12:28:00,33.9,24.5,29.79,WSW,248,8.2,8.2,68,0.00,,---,0.00,VWS V14.01,2013-03-12 16:28:00,
2013-03-12 12:33:00,33.9,24.5,29.79,West,270,12.0,12.0,68,0.00,,---,0.00,VWS V14.01,2013-03-12 16:33:00,
2013-03-12 12:38:00,33.9,24.8,29.79,West,270,4.9,4.9,69,0.00,,---,0.00,VWS V14.01,2013-03-12 16:38:00,
2013-03-12 12:43:00,33.9,24.8,29.79,WSW,248,8.0,8.0,69,0.00,,---,0.00,VWS V14.01,2013-03-12 16:43:00,
2013-03-12 12:48:00,33.9,24.8,29.79,WSW,248,5.5,6.0,69,0.00,,---,0.00,VWS V14.01,2013-03-12 16:48:00,
2013-03-12 12:53:00,33.8,25.1,29.79,West,270,9.6,9.6,70,0.00,,---,0.00,VWS V14.01,2013-03-12 16:53:00,
2013-03-12 12:58:00,33.6,24.9,29.79,West,270,16.7,16.7,70,0.00,,---,0.00,VWS V14.01,2013-03-12 16:58:00,
2013-03-12 13:03:00,33.8,24.7,29.79,WSW,248,7.3,7.3,69,0.00,,---,0.00,VWS V14.01,2013-03-12 17:03:00,
2013-03-12 13:08:00,33.9,25.2,29.79,West,270,10.7,10.7,70,0.00,,---,0.00,VWS V14.01,2013-03-12 17:08:00,
2013-03-12 13:13:00,34.1,25.0,29.79,WSW,248,8.5,8.5,69,0.00,,---,0.00,VWS V14.01,2013-03-12 17:13:00,
2013-03-12 13:18:00,34.3,25.2,29.80,SSW,202,9.3,9.3,69,0.00,,---,0.00,VWS V14.01,2013-03-12 17:18:00,
2013-03-12 13:23:00,34.1,25.7,29.80,NW,315,6.7,6.7,71,0.00,,---,0.00,VWS V14.01,2013-03-12 17:23:00,
2013-03-12 13:28:00,34.1,25.4,29.80,West,270,8.0,8.0,70,0.00,,---,0.00,VWS V14.01,2013-03-12 17:28:00,
2013-03-12 13:33:00,34.3,25.2,29.80,NW,315,6.9,6.9,69,0.00,,---,0.00,VWS V14.01,2013-03-12 17:33:00,
2013-03-12 13:38:00,34.5,25.4,29.80,West,270,8.7,8.7,69,0.00,,---,0.00,VWS V14.01,2013-03-12 17:38:00,
2013-03-12 13:44:00,34.7,24.9,29.80,SW,225,10.5,10.5,67,0.00,,---,0.00,VWS V14.01,2013-03-12 17:44:00,
2013-03-12 13:49:00,34.7,24.1,29.80,SSW,202,7.6,7.6,65,0.00,,---,0.00,VWS V14.01,2013-03-12 17:49:00,
2013-03-12 13:54:00,34.8,24.2,29.80,SW,225,13.4,13.4,65,0.00,,---,0.00,VWS V14.01,2013-03-12 17:54:00,
2013-03-12 13:59:00,35.2,24.6,29.80,WSW,248,7.6,7.6,65,0.00,,---,0.00,VWS V14.01,2013-03-12 17:59:00,
2013-03-12 14:04:00,35.4,24.8,29.79,WSW,248,5.5,5.5,65,0.00,,---,0.00,VWS V14.01,2013-03-12 18:04:00,
2013-03-12 14:09:00,35.4,24.8,29.80,WSW,248,9.6,9.6,65,0.00,,---,0.00,VWS V14.01,2013-03-12 18:09:00,
2013-03-12 14:14:00,35.2,25.0,29.80,NW,315,8.0,8.5,66,0.00,,---,0.00,VWS V14.01,2013-03-12 18:14:00,
2013-03-12 14:19:00,35.4,25.5,29.80,WSW,248,10.7,10.7,67,0.00,,---,0.00,VWS V14.01,2013-03-12 18:19:00,
2013-03-12 14:24:00,35.7,25.1,29.79,SSE,158,8.7,8.7,65,0.00,,---,0.00,VWS V14.01,2013-03-12 18:24:00,
2013-03-12 14:29:00,35.7,25.1,29.79,SW,225,10.5,10.5,65,0.00,,---,0.00,VWS V14.01,2013-03-12 18:29:00,
2013-03-12 14:34:00,35.7,25.1,29.79,WNW,292,8.7,8.7,65,0.00,,---,0.00,VWS V14.01,2013-03-12 18:34:00,
2013-03-12 14:39:00,35.7,24.4,29.79,SW,225,11.8,11.8,63,0.00,,---,0.00,VWS V14.01,2013-03-12 18:39:00,
2013-03-12 14:44:00,35.7,24.7,29.79,WSW,248,8.2,9.6,64,0.00,,---,0.00,VWS V14.01,2013-03-12 18:44:00,
2013-03-12 14:49:00,35.9,24.9,29.79,SSW,202,12.7,12.7,64,0.00,,---,0.00,VWS V14.01,2013-03-12 18:49:00,
2013-03-12 14:55:00,36.3,24.9,29.79,WSW,248,8.0,8.0,63,0.00,,---,0.00,VWS V14.01,2013-03-12 18:55:00,
2013-03-12 15:00:00,36.8,25.8,29.79,WSW,248,7.6,7.6,64,0.00,,---,0.00,VWS V14.01,2013-03-12 19:00:00,
2013-03-12 15:05:00,37.2,25.0,29.79,SW,225,8.0,8.0,61,0.00,,---,0.00,VWS V14.01,2013-03-12 19:05:00,
2013-03-12 15:10:00,37.2,25.0,29.79,SW,225,7.3,7.3,61,0.00,,---,0.00,VWS V14.01,2013-03-12 19:10:00,
2013-03-12 15:15:00,37.0,24.8,29.79,WSW,248,9.6,9.6,61,0.00,,---,0.00,VWS V14.01,2013-03-12 19:15:00,
2013-03-12 15:20:00,37.0,24.8,29.79,West,270,7.1,7.1,61,0.00,,---,0.00,VWS V14.01,2013-03-12 19:20:00,
2013-03-12 15:25:00,37.2,25.0,29.79,SW,225,9.6,9.6,61,0.00,,---,0.00,VWS V14.01,2013-03-12 19:25:00,
2013-03-12 15:30:00,36.6,24.0,29.79,SSW,202,6.0,6.0,60,0.00,,---,0.00,VWS V14.01,2013-03-12 19:30:00,
2013-03-12 15:35:00,36.3,24.1,29.79,SSW,202,8.9,8.9,61,0.00,,---,0.00,VWS V14.01,2013-03-12 19:35:00,
2013-03-12 15:40:00,36.1,24.0,29.79,WSW,248,6.9,6.9,61,0.00,,---,0.00,VWS V14.01,2013-03-12 19:40:00,
2013-03-12 15:45:00,35.7,24.4,29.79,West,270,6.4,6.4,63,0.00,,---,0.00,VWS V14.01,2013-03-12 19:45:00,
2013-03-12 15:50:00,35.2,24.6,29.79,SW,225,8.0,8.0,65,0.00,,---,0.00,VWS V14.01,2013-03-12 19:50:00,
2013-03-12 15:55:00,35.2,25.0,29.79,WSW,248,5.8,5.8,66,0.00,,---,0.00,VWS V14.01,2013-03-12 19:55:00,
2013-03-12 16:00:00,35.2,25.4,29.79,West,270,11.6,11.6,67,0.00,,---,0.00,VWS V14.01,2013-03-12 20:00:00,
2013-03-12 16:05:00,35.4,25.2,29.79,West,270,4.6,4.6,66,0.00,,---,0.00,VWS V14.01,2013-03-12 20:05:00,
2013-03-12 16:10:00,35.4,25.2,29.79,West,270,9.8,9.8,66,0.00,,---,0.00,VWS V14.01,2013-03-12 20:10:00,
2013-03-12 16:15:00,35.7,25.1,29.79,West,270,5.3,5.3,65,0.00,,---,0.00,VWS V14.01,2013-03-12 20:15:00,
2013-03-12 16:20:00,35.9,24.9,29.79,WSW,248,7.8,9.6,64,0.00,,---,0.00,VWS V14.01,2013-03-12 20:20:00,
2013-03-12 16:25:00,36.1,25.1,29.79,WSW,248,6.4,6.4,64,0.00,,---,0.00,VWS V14.01,2013-03-12 20:25:00,
2013-03-12 16:30:00,36.1,25.1,29.79,West,270,6.0,6.0,64,0.00,,---,0.00,VWS V14.01,2013-03-12 20:30:00,
2013-03-12 16:35:00,36.1,25.5,29.79,WSW,248,7.1,7.3,65,0.00,,---,0.00,VWS V14.01,2013-03-12 20:35:00,
2013-03-12 16:40:00,36.1,25.5,29.80,SSW,202,11.1,11.1,65,0.00,,---,0.00,VWS V14.01,2013-03-12 20:40:00,
2013-03-12 16:45:00,35.9,24.9,29.80,WSW,248,7.3,7.3,64,0.00,,---,0.00,VWS V14.01,2013-03-12 20:45:00,
2013-03-12 16:50:00,35.7,24.7,29.80,SW,225,7.3,10.2,64,0.00,,---,0.00,VWS V14.01,2013-03-12 20:50:00,
2013-03-12 16:55:00,35.7,25.1,29.80,West,270,10.2,10.2,65,0.00,,---,0.00,VWS V14.01,2013-03-12 20:55:00,
2013-03-12 17:02:00,35.7,25.1,29.80,West,270,11.6,11.6,65,0.00,,---,0.00,VWS V14.01,2013-03-12 21:02:00,
2013-03-12 17:07:00,35.4,24.8,29.80,West,270,9.1,9.1,65,0.00,,---,0.00,VWS V14.01,2013-03-12 21:07:00,
2013-03-12 17:12:00,35.4,24.8,29.80,SSW,202,16.7,16.7,65,0.00,,---,0.00,VWS V14.01,2013-03-12 21:12:00,
2013-03-12 17:18:00,35.2,25.0,29.80,WSW,248,8.5,8.9,66,0.00,,---,0.00,VWS V14.01,2013-03-12 21:18:00,
2013-03-12 17:23:00,34.8,25.0,29.80,West,270,8.2,8.2,67,0.00,,---,0.00,VWS V14.01,2013-03-12 21:23:00,
2013-03-12 17:29:00,34.3,24.9,29.81,SW,225,4.4,4.4,68,0.00,,---,0.00,VWS V14.01,2013-03-12 21:29:00,
2013-03-12 17:35:00,34.3,25.2,29.81,South,180,10.0,10.0,69,0.00,,---,0.00,VWS V14.01,2013-03-12 21:35:00,
2013-03-12 17:40:00,34.1,25.4,29.81,SW,225,13.4,13.4,70,0.00,,---,0.00,VWS V14.01,2013-03-12 21:40:00,
2013-03-12 17:46:00,33.9,25.5,29.81,WSW,248,4.2,11.4,71,0.00,,---,0.00,VWS V14.01,2013-03-12 21:46:00,
2013-03-12 17:51:00,33.6,25.2,29.81,SSW,202,8.9,8.9,71,0.00,,---,0.00,VWS V14.01,2013-03-12 21:51:00,
2013-03-12 17:56:00,33.6,25.5,29.81,West,270,6.0,7.8,72,0.00,,---,0.00,VWS V14.01,2013-03-12 21:56:00,
2013-03-12 18:02:00,33.4,25.4,29.82,West,270,7.8,7.8,72,0.00,,---,0.00,VWS V14.01,2013-03-12 22:02:00,
2013-03-12 18:07:00,33.0,25.6,29.82,WSW,248,2.6,6.9,74,0.00,,---,0.00,VWS V14.01,2013-03-12 22:07:00,
2013-03-12 18:12:00,32.7,25.7,29.82,WSW,248,2.2,2.2,75,0.00,,---,0.00,VWS V14.01,2013-03-12 22:12:00,
2013-03-12 18:17:00,32.5,25.8,29.82,WNW,292,2.9,2.9,76,0.00,,---,0.00,VWS V14.01,2013-03-12 22:17:00,
2013-03-12 18:22:00,32.5,25.8,29.82,WSW,248,7.8,7.8,76,0.00,,---,0.00,VWS V14.01,2013-03-12 22:22:00,
2013-03-12 18:27:00,32.5,26.1,29.82,West,270,5.8,5.8,77,0.00,,---,0.00,VWS V14.01,2013-03-12 22:27:00,
2013-03-12 18:33:00,32.3,25.9,29.82,WSW,248,7.6,7.6,77,0.00,,---,0.00,VWS V14.01,2013-03-12 22:33:00,
2013-03-12 18:38:00,32.3,25.9,29.82,West,270,6.4,6.4,77,0.00,,---,0.00,VWS V14.01,2013-03-12 22:38:00,
2013-03-12 18:43:00,32.3,25.9,29.82,West,270,6.4,6.7,77,0.00,,---,0.00,VWS V14.01,2013-03-12 22:43:00,
2013-03-12 18:48:00,32.5,25.8,29.82,SW,225,5.1,5.1,76,0.00,,---,0.00,VWS V14.01,2013-03-12 22:48:00,
2013-03-12 18:53:00,32.5,25.8,29.82,West,270,7.8,7.8,76,0.00,,---,0.00,VWS V14.01,2013-03-12 22:53:00,
2013-03-12 18:58:00,32.7,26.0,29.82,West,270,6.7,6.7,76,0.00,,---,0.00,VWS V14.01,2013-03-12 22:58:00,
2013-03-12 19:03:00,32.7,25.7,29.83,SSW,202,6.9,8.2,75,0.00,,---,0.00,VWS V14.01,2013-03-12 23:03:00,
2013-03-12 19:08:00,32.7,25.3,29.83,SSW,202,8.7,8.7,74,0.00,,---,0.00,VWS V14.01,2013-03-12 23:08:00,
2013-03-12 19:13:00,32.7,25.0,29.83,WSW,248,5.5,5.5,73,0.00,,---,0.00,VWS V14.01,2013-03-12 23:13:00,
2013-03-12 19:18:00,32.7,25.0,29.83,WSW,248,3.1,5.8,73,0.00,,---,0.00,VWS V14.01,2013-03-12 23:18:00,
2013-03-12 19:23:00,32.7,25.0,29.83,SW,225,5.3,5.3,73,0.00,,---,0.00,VWS V14.01,2013-03-12 23:23:00,
2013-03-12 19:28:00,32.5,24.5,29.83,SW,225,5.8,7.6,72,0.00,,---,0.00,VWS V14.01,2013-03-12 23:28:00,
2013-03-12 19:33:00,32.5,24.5,29.84,SW,225,9.3,9.3,72,0.00,,---,0.00,VWS V14.01,2013-03-12 23:33:00,
2013-03-12 19:38:00,32.5,24.5,29.84,WSW,248,5.3,5.3,72,0.00,,---,0.00,VWS V14.01,2013-03-12 23:38:00,
2013-03-12 19:43:00,32.3,24.3,29.84,WSW,248,8.0,8.7,72,0.00,,---,0.00,VWS V14.01,2013-03-12 23:43:00,
2013-03-12 19:49:00,32.3,24.3,29.84,WSW,248,8.2,8.2,72,0.00,,---,0.00,VWS V14.01,2013-03-12 23:49:00,
2013-03-12 19:54:00,32.1,24.1,29.83,SW,225,8.0,8.0,72,0.00,,---,0.00,VWS V14.01,2013-03-12 23:54:00,
2013-03-12 19:59:00,32.1,24.1,29.83,WSW,248,7.1,7.1,72,0.00,,---,0.00,VWS V14.01,2013-03-12 23:59:00,
2013-03-12 20:04:00,32.1,24.1,29.84,WSW,248,6.9,6.9,72,0.00,,---,0.00,VWS V14.01,2013-03-13 00:04:00,
2013-03-12 20:09:00,32.1,24.1,29.84,WSW,248,4.2,6.4,72,0.00,,---,0.00,VWS V14.01,2013-03-13 00:09:00,
2013-03-12 20:14:00,32.0,24.0,29.84,WSW,248,6.0,6.0,72,0.00,,---,0.00,VWS V14.01,2013-03-13 00:14:00,
2013-03-12 20:19:00,31.8,23.8,29.84,SW,225,8.0,8.0,72,0.00,,---,0.00,VWS V14.01,2013-03-13 00:19:00,
2013-03-12 20:24:00,31.8,23.8,29.84,West,270,6.4,6.4,72,0.00,,---,0.00,VWS V14.01,2013-03-13 00:24:00,
2013-03-12 20:30:00,31.8,23.8,29.84,SW,225,3.5,3.5,72,0.00,,---,0.00,VWS V14.01,2013-03-13 00:30:00,
2013-03-12 20:35:00,31.8,23.8,29.84,WSW,248,8.9,8.9,72,0.00,,---,0.00,VWS V14.01,2013-03-13 00:35:00,
2013-03-12 20:40:00,31.8,23.8,29.84,WSW,248,7.1,7.1,72,0.00,,---,0.00,VWS V14.01,2013-03-13 00:40:00,
2013-03-12 20:45:00,31.6,23.6,29.84,SSW,202,6.4,6.4,72,0.00,,---,0.00,VWS V14.01,2013-03-13 00:45:00,
2013-03-12 20:50:00,31.6,23.6,29.84,WSW,248,8.2,8.2,72,0.00,,---,0.00,VWS V14.01,2013-03-13 00:50:00,
2013-03-12 20:55:00,31.6,23.6,29.85,SSW,202,6.2,6.2,72,0.00,,---,0.00,VWS V14.01,2013-03-13 00:55:00,
2013-03-12 21:00:00,31.6,24.0,29.85,SW,225,7.6,7.6,73,0.00,,---,0.00,VWS V14.01,2013-03-13 01:00:00,
2013-03-12 21:05:00,31.2,23.9,29.85,West,270,8.5,8.5,74,0.00,,---,0.00,VWS V14.01,2013-03-13 01:05:00,
2013-03-12 21:10:00,31.1,24.1,29.85,SW,225,6.4,6.4,75,0.00,,---,0.00,VWS V14.01,2013-03-13 01:10:00,
2013-03-12 21:15:00,30.9,24.2,29.85,WSW,248,6.9,6.9,76,0.00,,---,0.00,VWS V14.01,2013-03-13 01:15:00,
2013-03-12 21:20:00,30.7,24.4,29.85,SW,225,1.3,6.9,77,0.00,,---,0.00,VWS V14.01,2013-03-13 01:20:00,
2013-03-12 21:25:00,30.3,24.3,29.86,SSW,202,6.2,6.2,78,0.00,,---,0.00,VWS V14.01,2013-03-13 01:25:00,
2013-03-12 21:30:00,30.3,24.3,29.85,SW,225,6.9,6.9,78,0.00,,---,0.00,VWS V14.01,2013-03-13 01:30:00,
2013-03-12 21:35:00,30.2,24.5,29.85,West,270,4.6,4.6,79,0.00,,---,0.00,VWS V14.01,2013-03-13 01:35:00,
2013-03-12 21:40:00,30.2,24.5,29.85,WSW,248,5.1,5.1,79,0.00,,---,0.00,VWS V14.01,2013-03-13 01:40:00,
2013-03-12 21:45:00,30.0,24.3,29.85,SW,225,5.8,5.8,79,0.00,,---,0.00,VWS V14.01,2013-03-13 01:45:00,
2013-03-12 21:50:00,30.0,24.3,29.86,WSW,248,2.0,5.8,79,0.00,,---,0.00,VWS V14.01,2013-03-13 01:50:00,
2013-03-12 21:55:00,30.0,24.3,29.85,SW,225,0.0,0.0,79,0.00,,---,0.00,VWS V14.01,2013-03-13 01:55:00,
2013-03-12 22:00:00,30.0,24.3,29.86,SW,225,0.0,0.0,79,0.00,,---,0.00,VWS V14.01,2013-03-13 02:00:00,
2013-03-12 22:05:00,30.0,24.3,29.86,SSW,202,0.0,8.0,79,0.00,,---,0.00,VWS V14.01,2013-03-13 02:05:00,
2013-03-12 22:10:00,30.0,24.3,29.85,WSW,248,0.0,0.0,79,0.00,,---,0.00,VWS V14.01,2013-03-13 02:10:00,
2013-03-12 22:15:00,30.0,24.3,29.85,SW,225,0.0,6.7,79,0.00,,---,0.00,VWS V14.01,2013-03-13 02:15:00,
2013-03-12 22:20:00,30.0,24.3,29.85,SSW,202,1.1,3.3,79,0.00,,---,0.00,VWS V14.01,2013-03-13 02:20:00,
2013-03-12 22:25:00,30.0,24.0,29.85,SSW,202,0.0,0.0,78,0.00,,---,0.00,VWS V14.01,2013-03-13 02:25:00,
2013-03-12 22:30:00,30.0,24.0,29.85,SW,225,6.9,6.9,78,0.00,,---,0.00,VWS V14.01,2013-03-13 02:30:00,
2013-03-12 22:35:00,30.0,24.0,29.85,SSW,202,3.5,3.5,78,0.00,,---,0.00,VWS V14.01,2013-03-13 02:35:00,
2013-03-12 22:40:00,30.0,24.0,29.85,SW,225,0.0,0.0,78,0.00,,---,0.00,VWS V14.01,2013-03-13 02:40:00,
2013-03-12 22:45:00,30.0,24.0,29.85,West,270,1.5,1.5,78,0.00,,---,0.00,VWS V14.01,2013-03-13 02:45:00,
2013-03-12 22:50:00,30.0,24.0,29.85,South,180,8.5,8.5,78,0.00,,---,0.00,VWS V14.01,2013-03-13 02:50:00,
2013-03-12 22:55:00,30.0,24.0,29.85,WSW,248,3.3,3.3,78,0.00,,---,0.00,VWS V14.01,2013-03-13 02:55:00,
2013-03-12 23:00:00,30.0,24.0,29.84,WSW,248,0.0,0.0,78,0.00,,---,0.00,VWS V14.01,2013-03-13 03:00:00,
2013-03-12 23:05:00,30.0,24.0,29.84,SW,225,2.4,2.4,78,0.00,,---,0.00,VWS V14.01,2013-03-13 03:05:00,
2013-03-12 23:10:00,30.0,24.0,29.84,SSW,202,3.8,3.8,78,0.00,,---,0.00,VWS V14.01,2013-03-13 03:10:00,
2013-03-12 23:15:00,30.0,24.0,29.85,SSW,202,8.9,8.9,78,0.00,,---,0.00,VWS V14.01,2013-03-13 03:15:00,
2013-03-12 23:20:00,30.0,24.0,29.85,SSW,202,6.0,8.7,78,0.00,,---,0.00,VWS V14.01,2013-03-13 03:20:00,
2013-03-12 23:25:00,30.0,24.0,29.85,SW,225,5.8,5.8,78,0.00,,---,0.00,VWS V14.01,2013-03-13 03:25:00,
2013-03-12 23:30:00,30.0,24.0,29.85,West,270,6.0,6.0,78,0.00,,---,0.00,VWS V14.01,2013-03-13 03:30:00,
2013-03-12 23:35:00,30.0,24.0,29.85,SW,225,0.0,5.3,78,0.00,,---,0.00,VWS V14.01,2013-03-13 03:35:00,
2013-03-12 23:40:00,30.0,24.0,29.85,SW,225,1.5,1.5,78,0.00,,---,0.00,VWS V14.01,2013-03-13 03:40:00,
2013-03-12 23:45:00,30.0,24.0,29.85,SW,225,1.7,1.7,78,0.00,,---,0.00,VWS V14.01,2013-03-13 03:45:00,
2013-03-12 23:50:00,30.0,24.0,29.85,SW,225,6.7,6.7,78,0.00,,---,0.00,VWS V14.01,2013-03-13 03:50:00,
2013-03-12 23:55:00,29.8,23.8,29.85,SW,225,0.8,0.8,78,0.00,,---,0.00,VWS V14.01,2013-03-13 03:55:00,